Time;durP1;ratioP1;P1;durP2;ratioP2;P2;SDS_P1;SDS_P2;PMS_P1;PMS_P2;Temp;Humidity;BMP_temperature;BMP_pressure;BME280_temperature;BME280_humidity;BME280_pressure;Samples;Min_cycle;Max_cycle;Signal;HPM_P1;HPM_P2
2022/09/26 00:01:19;;;;;;;;;;;;;;;;;;5176796;27;2129;-48
2022/09/26 00:03:51;;;;;;;;;;;;;;;;;;5176746;27;1924;-51
2022/09/26 00:06:19;;;;;;;;;;;;;;;;;;5176561;27;1789;-51
2022/09/26 00:08:46;;;;;;;;;;;;;;;;;;5176451;27;1974;-50
2022/09/26 00:11:15;;;;;;;;;;;;;;;;;;5176764;27;2058;-50
2022/09/26 00:13:43;;;;;;;;;;;;;;;;;;5176549;27;1703;-50
2022/09/26 00:16:11;;;;;;;;;;;;;;;;;;5176478;27;1720;-49
2022/09/26 00:18:39;;;;;;;;;;;;;;;;;;5176192;27;2139;-50
2022/09/26 00:21:08;;;;;;;;;;;;;;;;;;5176077;27;1827;-48
2022/09/26 00:23:36;;;;;;;;;;;;;;;;;;5176102;27;1955;-47
2022/09/26 00:26:03;;;;;;;;;;;;;;;;;;5176147;27;1395;-46
2022/09/26 00:28:31;;;;;;;;;;;;;;;;;;5176465;27;2150;-48
2022/09/26 00:31:10;;;;;;;;;;;;;;;;;;5157860;27;2051;-50
2022/09/26 00:33:37;;;;;;;;;;;;;;;;;;5176008;27;2153;-48
2022/09/26 00:36:05;;;;;;;;;;;;;;;;;;5176198;27;2113;-49
2022/09/26 00:38:33;;;;;;;;;;;;;;;;;;5157413;27;2023;-49
2022/09/26 00:41:00;;;;;;;;;;;;;;;;;;5174879;27;1821;-48
2022/09/26 00:43:35;;;;;;;;;;;;;;;;;;5176422;27;1671;-49
2022/09/26 00:46:06;;;;;;;;;;;;;;;;;;5156984;27;1985;-51
2022/09/26 00:48:34;;;;;;;;;;;;;;;;;;5176288;27;1735;-48
2022/09/26 00:51:01;;;;;;;;;;;;;;;;;;5176113;27;1748;-47
2022/09/26 00:53:38;;;;;;;;;;;;;;;;;;5175968;27;1708;-51
2022/09/26 00:56:08;;;;;;;;;;;;;;;;;;5157105;27;2190;-50
2022/09/26 00:58:42;;;;;;;;;;;;;;;;;;5175738;27;1949;-48
2022/09/26 01:01:10;;;;;;;;;;;;;;;;;;5175745;27;2199;-49
2022/09/26 01:03:38;;;;;;;;;;;;;;;;;;5175909;27;2326;-51
2022/09/26 01:06:06;;;;;;;;;;;;;;;;;;5175605;27;2282;-50
2022/09/26 01:08:37;;;;;;;;;;;;;;;;;;5175701;27;2039;-49
2022/09/26 01:11:04;;;;;;;;;;;;;;;;;;5175594;27;1925;-47
2022/09/26 01:13:33;;;;;;;;;;;;;;;;;;5156668;27;1836;-49
2022/09/26 01:16:00;;;;;;;;;;;;;;;;;;5175895;27;1617;-49
2022/09/26 01:18:28;;;;;;;;;;;;;;;;;;5176052;27;1990;-50
2022/09/26 01:21:10;;;;;;;;;;;;;;;;;;5175406;27;1844;-52
2022/09/26 01:23:41;;;;;;;;;;;;;;;;;;5156852;27;1836;-51
2022/09/26 01:26:23;;;;;;;;;;;;;;;;;;5175531;27;2377;-50
2022/09/26 01:29:03;;;;;;;;;;;;;;;;;;5135985;27;1909;-49
2022/09/26 01:31:42;;;;;;;;;;;;;;;;;;5136514;27;1874;-48
2022/09/26 01:34:21;;;;;;;;;;;;;;;;;;5135802;27;1734;-49
2022/09/26 01:36:48;;;;;;;;;;;;;;;;;;5135964;27;1652;-49
2022/09/26 01:39:33;;;;;;;;;;;;;;;;;;5154425;27;1960;-51
2022/09/26 01:42:27;;;;;;;;;;;;;;;;;;5113591;28;1680;-47
2022/09/26 01:45:01;;;;;;;;;;;;;;;;;;5125678;28;1752;-50
2022/09/26 01:47:38;;;;;;;;;;;;;;;;;;5112079;28;1801;-49
2022/09/26 01:50:22;;;;;;;;;;;;;;;;;;5129116;28;2074;-49
2022/09/26 01:52:59;;;;;;;;;;;;;;;;;;5113975;28;2028;-49
2022/09/26 01:55:30;;;;;;;;;;;;;;;;;;5116130;28;2045;-49
2022/09/26 01:58:01;;;;;;;;;;;;;;;;;;5115916;28;1901;-47
2022/09/26 02:00:28;;;;;;;;;;;;;;;;;;5132990;27;2308;-50
2022/09/26 02:02:57;;;;;;;;;;;;;;;;;;5115749;28;1798;-50
2022/09/26 02:05:27;;;;;;;;;;;;;;;;;;5098553;28;1979;-48
2022/09/26 02:08:00;;;;;;;;;;;;;;;;;;5132363;27;1984;-48
2022/09/26 02:10:37;;;;;;;;;;;;;;;;;;5116919;28;1965;-49
2022/09/26 02:13:09;;;;;;;;;;;;;;;;;;5126502;27;1842;-49
2022/09/26 02:15:37;;;;;;;;;;;;;;;;;;5116734;28;1813;-46
2022/09/26 02:18:22;;;;;;;;;;;;;;;;;;5115307;28;2262;-51
2022/09/26 02:20:54;;;;;;;;;;;;;;;;;;5115116;28;1971;-52
2022/09/26 02:23:21;;;;;;;;;;;;;;;;;;5114978;28;1866;-43
2022/09/26 02:25:50;;;;;;;;;;;;;;;;;;5114860;28;1843;-41
2022/09/26 02:28:17;;;;;;;;;;;;;;;;;;5132595;27;2190;-42
2022/09/26 02:30:46;;;;;;;;;;;;;;;;;;5132214;27;1512;-41
2022/09/26 02:33:13;;;;;;;;;;;;;;;;;;5115213;28;2288;-42
2022/09/26 02:35:54;;;;;;;;;;;;;;;;;;5116540;28;1876;-41
2022/09/26 02:38:27;;;;;;;;;;;;;;;;;;5114909;28;2243;-42
2022/09/26 02:41:09;;;;;;;;;;;;;;;;;;5129028;27;2046;-40
2022/09/26 02:43:36;;;;;;;;;;;;;;;;;;5135367;27;2313;-40
2022/09/26 02:46:21;;;;;;;;;;;;;;;;;;5136651;27;1442;-43
2022/09/26 02:49:08;;;;;;;;;;;;;;;;;;5135132;27;1772;-42
2022/09/26 02:51:54;;;;;;;;;;;;;;;;;;5135145;27;1766;-41
2022/09/26 02:54:30;;;;;;;;;;;;;;;;;;5135563;27;1520;-47
2022/09/26 02:57:00;;;;;;;;;;;;;;;;;;5135207;27;1925;-42
2022/09/26 02:59:32;;;;;;;;;;;;;;;;;;5135355;27;1968;-41
2022/09/26 03:02:05;;;;;;;;;;;;;;;;;;5134959;27;2310;-42
2022/09/26 03:04:49;;;;;;;;;;;;;;;;;;5134302;27;2146;-41
2022/09/26 03:07:23;;;;;;;;;;;;;;;;;;5136122;27;1793;-42
2022/09/26 03:09:52;;;;;;;;;;;;;;;;;;5134910;27;1965;-41
2022/09/26 03:12:19;;;;;;;;;;;;;;;;;;5136266;27;2352;-40
2022/09/26 03:14:47;;;;;;;;;;;;;;;;;;5134882;27;2121;-46
2022/09/26 03:17:17;;;;;;;;;;;;;;;;;;5136075;27;1768;-42
2022/09/26 03:19:46;;;;;;;;;;;;;;;;;;5136185;27;1933;-42
2022/09/26 03:22:14;;;;;;;;;;;;;;;;;;5136046;27;2256;-42
2022/09/26 03:24:42;;;;;;;;;;;;;;;;;;5135913;27;1595;-43
2022/09/26 03:27:13;;;;;;;;;;;;;;;;;;5151482;27;1997;-42
2022/09/26 03:29:40;;;;;;;;;;;;;;;;;;5154998;27;1876;-42
2022/09/26 03:32:15;;;;;;;;;;;;;;;;;;5155323;27;1985;-45
2022/09/26 03:34:42;;;;;;;;;;;;;;;;;;5155117;27;1926;-44
2022/09/26 03:37:10;;;;;;;;;;;;;;;;;;5155180;27;2125;-42
2022/09/26 03:39:37;;;;;;;;;;;;;;;;;;5156850;27;1972;-42
2022/09/26 03:42:21;;;;;;;;;;;;;;;;;;5158610;27;2083;-44
2022/09/26 03:44:52;;;;;;;;;;;;;;;;;;5158598;27;1981;-42
2022/09/26 03:47:42;;;;;;;;;;;;;;;;;;5168569;27;1635;-42
2022/09/26 03:50:10;;;;;;;;;;;;;;;;;;5158578;27;1958;-40
2022/09/26 03:52:40;;;;;;;;;;;;;;;;;;5157981;27;1757;-41
2022/09/26 03:55:07;;;;;;;;;;;;;;;;;;5158160;27;2192;-40
2022/09/26 03:57:35;;;;;;;;;;;;;;;;;;5177078;27;1882;-41
2022/09/26 04:00:14;;;;;;;;;;;;;;;;;;5158306;27;1844;-41
2022/09/26 04:02:42;;;;;;;;;;;;;;;;;;5176886;27;1800;-41
2022/09/26 04:05:22;;;;;;;;;;;;;;;;;;5157990;27;1893;-41
2022/09/26 04:07:49;;;;;;;;;;;;;;;;;;5176921;27;1472;-40
2022/09/26 04:10:17;;;;;;;;;;;;;;;;;;5157710;27;1876;-41
2022/09/26 04:12:45;;;;;;;;;;;;;;;;;;5158199;27;1961;-41
2022/09/26 04:15:13;;;;;;;;;;;;;;;;;;5157933;27;2020;-46
2022/09/26 04:17:41;;;;;;;;;;;;;;;;;;5157959;27;2015;-41
2022/09/26 04:20:08;;;;;;;;;;;;;;;;;;5157435;27;1909;-40
2022/09/26 04:22:37;;;;;;;;;;;;;;;;;;5157655;27;1863;-41
2022/09/26 04:25:04;;;;;;;;;;;;;;;;;;5157494;27;2040;-41
2022/09/26 04:27:31;;;;;;;;;;;;;;;;;;5157784;27;2317;-41
2022/09/26 04:29:58;;;;;;;;;;;;;;;;;;5157388;27;1656;-40
2022/09/26 04:32:39;;;;;;;;;;;;;;;;;;5157571;27;1834;-43
2022/09/26 04:35:32;;;;;;;;;;;;;;;;;;5153762;27;1990;-40
2022/09/26 04:38:00;;;;;;;;;;;;;;;;;;5176308;27;1941;-41
2022/09/26 04:40:28;;;;;;;;;;;;;;;;;;5157254;27;2156;-41
2022/09/26 04:43:01;;;;;;;;;;;;;;;;;;5157528;27;1831;-40
2022/09/26 04:45:28;;;;;;;;;;;;;;;;;;5176102;27;1636;-40
2022/09/26 04:47:56;;;;;;;;;;;;;;;;;;5157154;27;1667;-41
2022/09/26 04:50:23;;;;;;;;;;;;;;;;;;5134271;27;11396;-40
2022/09/26 04:53:07;;;;;;;;;;;;;;;;;;5006265;27;7635;-40
2022/09/26 04:55:43;;;;;;;;;;;;;;;;;;5129542;27;2073;-40
2022/09/26 04:58:12;;;;;;;;;;;;;;;;;;5132540;27;1956;-41
2022/09/26 05:00:46;;;;;;;;;;;;;;;;;;5131387;27;2004;-41
2022/09/26 05:03:20;;;;;;;;;;;;;;;;;;5131360;27;2030;-41
2022/09/26 05:05:49;;;;;;;;;;;;;;;;;;5131390;28;1820;-42
2022/09/26 05:08:16;;;;;;;;;;;;;;;;;;5131333;28;2582;-41
2022/09/26 05:10:50;;;;;;;;;;;;;;;;;;5132401;28;1954;-41
2022/09/26 05:13:17;;;;;;;;;;;;;;;;;;5131289;28;1786;-41
2022/09/26 05:15:46;;;;;;;;;;;;;;;;;;5131445;28;1785;-41
2022/09/26 05:18:14;;;;;;;;;;;;;;;;;;5131701;28;1937;-42
2022/09/26 05:20:45;;;;;;;;;;;;;;;;;;5132720;28;2320;-41
2022/09/26 05:23:13;;;;;;;;;;;;;;;;;;5132750;28;1554;-40
2022/09/26 05:28:26;;;;;;;;;;;;;;;;;;5119225;27;1425;-41
2022/09/26 05:30:53;;;;;;;;;;;;;;;;;;5116034;28;2183;-40
2022/09/26 05:33:23;;;;;;;;;;;;;;;;;;5116348;28;2093;-43
2022/09/26 05:35:52;;;;;;;;;;;;;;;;;;5116310;28;2279;-42
2022/09/26 05:38:20;;;;;;;;;;;;;;;;;;5116137;28;1976;-41
2022/09/26 05:40:58;;;;;;;;;;;;;;;;;;5116104;28;1735;-41
2022/09/26 05:43:30;;;;;;;;;;;;;;;;;;5117508;28;2214;-41
2022/09/26 05:46:02;;;;;;;;;;;;;;;;;;5115451;28;1626;-42
2022/09/26 05:48:35;;;;;;;;;;;;;;;;;;5114430;28;1697;-40
2022/09/26 05:51:04;;;;;;;;;;;;;;;;;;5114041;28;1644;-41
2022/09/26 05:53:31;;;;;;;;;;;;;;;;;;5113872;28;1740;-41
2022/09/26 05:55:59;;;;;;;;;;;;;;;;;;5113268;28;1431;-41
2022/09/26 05:58:46;;;;;;;;;;;;;;;;;;5113228;28;1906;-42
2022/09/26 06:01:16;;;;;;;;;;;;;;;;;;5114756;28;1893;-40
2022/09/26 06:03:44;;;;;;;;;;;;;;;;;;5114123;28;1983;-41
2022/09/26 06:06:20;;;;;;;;;;;;;;;;;;5114985;28;1981;-41
2022/09/26 06:08:53;;;;;;;;;;;;;;;;;;5114845;28;1649;-42
2022/09/26 06:11:39;;;;;;;;;;;;;;;;;;5115972;28;2272;-40
2022/09/26 06:14:07;;;;;;;;;;;;;;;;;;5114725;28;1779;-41
2022/09/26 06:16:34;;;;;;;;;;;;;;;;;;5114925;28;1862;-41
2022/09/26 06:19:01;;;;;;;;;;;;;;;;;;5116011;28;1906;-41
2022/09/26 06:21:28;;;;;;;;;;;;;;;;;;5114599;28;1795;-41
2022/09/26 06:24:07;;;;;;;;;;;;;;;;;;5115757;28;2338;-41
2022/09/26 06:26:36;;;;;;;;;;;;;;;;;;5117467;27;1838;-40
2022/09/26 06:29:04;;;;;;;;;;;;;;;;;;5135176;27;2119;-40
2022/09/26 06:31:36;;;;;;;;;;;;;;;;;;5135093;27;2073;-40
2022/09/26 06:34:11;;;;;;;;;;;;;;;;;;5136027;27;1620;-40
2022/09/26 06:37:00;;;;;;;;;;;;;;;;;;5136033;27;1826;-41
2022/09/26 06:39:34;;;;;;;;;;;;;;;;;;5133383;27;1902;-40
2022/09/26 06:42:06;;;;;;;;;;;;;;;;;;5134236;27;2142;-40
2022/09/26 06:44:56;;;;;;;;;;;;;;;;;;5134418;27;1672;-40
2022/09/26 06:47:23;;;;;;;;;;;;;;;;;;5135919;27;2240;-41
2022/09/26 06:50:26;;;;;;;;;;;;;;;;;;5113158;28;1724;-42
2022/09/26 06:52:56;;;;;;;;;;;;;;;;;;5126231;27;1782;-40
2022/09/26 06:55:25;;;;;;;;;;;;;;;;;;5136002;27;2182;-40
2022/09/26 06:57:52;;;;;;;;;;;;;;;;;;5117585;27;1856;-40
2022/09/26 07:00:24;;;;;;;;;;;;;;;;;;5134247;27;2141;-40
2022/09/26 07:03:04;;;;;;;;;;;;;;;;;;5134466;27;1688;-40
2022/09/26 07:06:02;;;;;;;;;;;;;;;;;;5097497;27;1524;-39
2022/09/26 07:08:29;;;;;;;;;;;;;;;;;;5133924;27;1399;-41
2022/09/26 07:11:23;;;;;;;;;;;;;;;;;;5134194;27;2005;-40
2022/09/26 07:14:14;;;;;;;;;;;;;;;;;;5134183;27;2198;-41
2022/09/26 07:16:43;;;;;;;;;;;;;;;;;;5129426;27;1996;-41
2022/09/26 07:19:41;;;;;;;;;;;;;;;;;;5113634;28;1918;-39
2022/09/26 07:22:28;;;;;;;;;;;;;;;;;;5114774;28;2077;-40
2022/09/26 07:24:56;;;;;;;;;;;;;;;;;;5113418;28;1865;-40
2022/09/26 07:27:25;;;;;;;;;;;;;;;;;;5112827;28;2090;-39
2022/09/26 07:29:52;;;;;;;;;;;;;;;;;;5114647;28;2038;-40
2022/09/26 07:32:20;;;;;;;;;;;;;;;;;;5112731;28;2243;-42
2022/09/26 07:35:10;;;;;;;;;;;;;;;;;;5113197;28;1390;-40
2022/09/26 07:37:38;;;;;;;;;;;;;;;;;;5113068;28;2038;-40
2022/09/26 07:40:05;;;;;;;;;;;;;;;;;;5129883;27;1975;-41
2022/09/26 07:42:33;;;;;;;;;;;;;;;;;;5130221;27;1472;-39
2022/09/26 07:45:00;;;;;;;;;;;;;;;;;;5113020;28;2147;-39
2022/09/26 07:50:54;;;;;;;;;;;;;;;;;;5113858;28;1519;-40
2022/09/26 07:53:30;;;;;;;;;;;;;;;;;;5112721;28;1697;-40
2022/09/26 07:56:16;;;;;;;;;;;;;;;;;;5114178;28;1870;-40
2022/09/26 07:59:04;;;;;;;;;;;;;;;;;;5114004;28;1997;-40
2022/09/26 08:01:53;;;;;;;;;;;;;;;;;;5114069;28;1621;-41
2022/09/26 08:04:38;;;;;;;;;;;;;;;;;;5112733;28;1879;-40
2022/09/26 08:07:07;;;;;;;;;;;;;;;;;;5113929;28;1732;-40
2022/09/26 08:09:40;;;;;;;;;;;;;;;;;;5114966;27;1748;-38
2022/09/26 08:12:35;;;;;;;;;;;;;;;;;;5109448;28;1632;-40
2022/09/26 08:15:25;;;;;;;;;;;;;;;;;;5113053;28;1912;-42
2022/09/26 08:18:02;;;;;;;;;;;;;;;;;;5112415;28;1953;-41
2022/09/26 08:20:29;;;;;;;;;;;;;;;;;;5112322;28;1917;-42
2022/09/26 08:22:58;;;;;;;;;;;;;;;;;;5113708;28;1852;-40
2022/09/26 08:25:26;;;;;;;;;;;;;;;;;;5112371;28;1964;-41
2022/09/26 08:28:00;;;;;;;;;;;;;;;;;;5128325;27;2089;-41
2022/09/26 08:30:30;;;;;;;;;;;;;;;;;;5132305;27;2069;-41
2022/09/26 08:33:00;;;;;;;;;;;;;;;;;;5132394;27;1619;-41
2022/09/26 08:35:37;;;;;;;;;;;;;;;;;;5132460;27;2001;-41
2022/09/26 08:38:31;;;;;;;;;;;;;;;;;;5116982;27;2065;-41
2022/09/26 08:41:38;;;;;;;;;;;;;;;;;;5090656;28;2368;-43
2022/09/26 08:44:41;;;;;;;;;;;;;;;;;;5073256;28;1871;-42
2022/09/26 08:47:55;;;;;;;;;;;;;;;;;;5126925;27;1830;-41
2022/09/26 08:50:32;;;;;;;;;;;;;;;;;;5081033;27;1861;-41
2022/09/26 08:53:12;;;;;;;;;;;;;;;;;;5132252;27;1746;-41
2022/09/26 08:55:46;;;;;;;;;;;;;;;;;;5149431;27;1843;-41
2022/09/26 08:58:17;;;;;;;;;;;;;;;;;;5132469;27;2257;-43
2022/09/26 09:00:48;;;;;;;;;;;;;;;;;;5131660;27;2138;-43
2022/09/26 09:03:19;;;;;;;;;;;;;;;;;;5131851;27;2007;-42
2022/09/26 09:05:48;;;;;;;;;;;;;;;;;;5132013;27;1783;-43
2022/09/26 09:08:21;;;;;;;;;;;;;;;;;;5133617;27;1914;-41
2022/09/26 09:11:29;;;;;;;;;;;;;;;;;;5132087;28;2013;-43
2022/09/26 09:14:08;;;;;;;;;;;;;;;;;;5133513;28;1737;-42
2022/09/26 09:17:33;;;;;;;;;;;;;;;;;;5131103;28;2012;-42
2022/09/26 09:20:20;;;;;;;;;;;;;;;;;;5113770;28;2152;-42
2022/09/26 09:23:28;;;;;;;;;;;;;;;;;;5133037;27;1775;-41
2022/09/26 09:26:00;;;;;;;;;;;;;;;;;;5133288;27;1936;-42
2022/09/26 09:29:08;;;;;;;;;;;;;;;;;;5111340;28;2347;-40
2022/09/26 09:31:40;;;;;;;;;;;;;;;;;;5107070;28;1869;-43
2022/09/26 09:34:38;;;;;;;;;;;;;;;;;;5088601;28;2139;-41
2022/09/26 09:37:27;;;;;;;;;;;;;;;;;;5111076;28;1695;-42
2022/09/26 09:40:21;;;;;;;;;;;;;;;;;;5110832;28;1938;-41
2022/09/26 09:43:06;;;;;;;;;;;;;;;;;;5110674;28;1840;-42
2022/09/26 09:45:37;;;;;;;;;;;;;;;;;;5116631;28;2291;-41
2022/09/26 09:48:08;;;;;;;;;;;;;;;;;;5111225;28;1478;-42
2022/09/26 09:50:41;;;;;;;;;;;;;;;;;;5112501;28;1615;-42
2022/09/26 09:53:27;;;;;;;;;;;;;;;;;;5111094;28;1828;-43
2022/09/26 09:56:07;;;;;;;;;;;;;;;;;;5111259;28;2369;-42
2022/09/26 09:58:43;;;;;;;;;;;;;;;;;;5110899;28;2374;-40
2022/09/26 10:01:17;;;;;;;;;;;;;;;;;;5112473;28;1910;-41
2022/09/26 10:03:57;;;;;;;;;;;;;;;;;;5112699;28;2075;-44
2022/09/26 10:06:26;;;;;;;;;;;;;;;;;;5111024;28;1617;-41
2022/09/26 10:09:19;;;;;;;;;;;;;;;;;;5111406;28;1716;-42
2022/09/26 10:12:21;;;;;;;;;;;;;;;;;;5112564;28;1904;-41
2022/09/26 10:15:26;;;;;;;;;;;;;;;;;;5115991;28;1919;-41
2022/09/26 10:18:14;;;;;;;;;;;;;;;;;;5115784;28;2070;-42
2022/09/26 10:21:18;;;;;;;;;;;;;;;;;;5114426;28;2119;-42
2022/09/26 10:23:48;;;;;;;;;;;;;;;;;;5114734;28;1888;-42
2022/09/26 10:26:38;;;;;;;;;;;;;;;;;;5113512;27;2127;-42
2022/09/26 10:29:33;;;;;;;;;;;;;;;;;;5118281;27;2085;-38
2022/09/26 10:32:01;;;;;;;;;;;;;;;;;;5135099;27;1824;-38
2022/09/26 10:34:30;;;;;;;;;;;;;;;;;;5134956;27;1943;-41
2022/09/26 10:37:17;;;;;;;;;;;;;;;;;;5134659;27;1972;-41
2022/09/26 10:42:38;;;;;;;;;;;;;;;;;;5134731;27;1633;-42
2022/09/26 10:45:14;;;;;;;;;;;;;;;;;;5134855;27;1596;-41
2022/09/26 10:48:11;;;;;;;;;;;;;;;;;;5094859;28;2115;-42
2022/09/26 10:50:59;;;;;;;;;;;;;;;;;;5115260;28;1816;-39
2022/09/26 10:53:35;;;;;;;;;;;;;;;;;;5115513;28;2105;-42
2022/09/26 10:56:10;;;;;;;;;;;;;;;;;;5113971;28;1789;-41
2022/09/26 10:58:39;;;;;;;;;;;;;;;;;;5113711;28;2265;-39
2022/09/26 11:01:17;;;;;;;;;;;;;;;;;;5113798;28;2478;-41
2022/09/26 11:03:47;;;;;;;;;;;;;;;;;;5114120;28;1817;-42
2022/09/26 11:06:24;;;;;;;;;;;;;;;;;;5115203;28;2140;-42
2022/09/26 11:08:57;;;;;;;;;;;;;;;;;;5113658;28;2170;-44
2022/09/26 11:11:45;;;;;;;;;;;;;;;;;;5115024;28;1859;-40
2022/09/26 11:14:21;;;;;;;;;;;;;;;;;;5113845;28;2200;-43
2022/09/26 11:16:59;;;;;;;;;;;;;;;;;;5113602;28;1927;-41
2022/09/26 11:19:47;;;;;;;;;;;;;;;;;;5113670;28;1832;-43
2022/09/26 11:22:38;;;;;;;;;;;;;;;;;;5113791;28;1880;-42
2022/09/26 11:25:09;;;;;;;;;;;;;;;;;;5112735;28;1859;-42
2022/09/26 11:27:44;;;;;;;;;;;;;;;;;;5114614;27;1873;-42
2022/09/26 11:30:19;;;;;;;;;;;;;;;;;;5113552;28;1861;-41
2022/09/26 11:32:55;;;;;;;;;;;;;;;;;;5113345;28;1941;-41
2022/09/26 11:35:44;;;;;;;;;;;;;;;;;;5114477;28;1710;-41
2022/09/26 11:38:12;;;;;;;;;;;;;;;;;;5130228;27;2184;-41
2022/09/26 11:40:39;;;;;;;;;;;;;;;;;;5112662;28;1971;-41
2022/09/26 11:43:14;;;;;;;;;;;;;;;;;;5130226;27;1806;-41
2022/09/26 11:45:44;;;;;;;;;;;;;;;;;;5113008;28;2021;-41
2022/09/26 11:49:03;;;;;;;;;;;;;;;;;;5113888;28;1610;-42
2022/09/26 11:51:59;;;;;;;;;;;;;;;;;;5114519;28;2035;-40
2022/09/26 11:54:32;;;;;;;;;;;;;;;;;;5114241;28;1669;-41
2022/09/26 11:57:07;;;;;;;;;;;;;;;;;;5113931;28;1688;-41
2022/09/26 11:59:40;;;;;;;;;;;;;;;;;;5114272;28;2063;-41
2022/09/26 12:02:29;;;;;;;;;;;;;;;;;;5113827;28;2171;-41
2022/09/26 12:04:57;;;;;;;;;;;;;;;;;;5113816;28;1531;-42
2022/09/26 12:07:31;;;;;;;;;;;;;;;;;;5113739;28;1868;-42
2022/09/26 12:10:25;;;;;;;;;;;;;;;;;;5112673;28;2043;-39
2022/09/26 12:12:57;;;;;;;;;;;;;;;;;;5129622;27;1669;-42
2022/09/26 12:15:43;;;;;;;;;;;;;;;;;;5113542;28;1774;-41
2022/09/26 12:18:16;;;;;;;;;;;;;;;;;;5113769;28;1768;-43
2022/09/26 12:20:52;;;;;;;;;;;;;;;;;;5113554;28;1968;-41
2022/09/26 12:23:34;;;;;;;;;;;;;;;;;;5113945;28;2106;-41
2022/09/26 12:26:09;;;;;;;;;;;;;;;;;;5113683;28;1824;-42
2022/09/26 12:28:37;;;;;;;;;;;;;;;;;;5111895;28;1952;-40
2022/09/26 12:31:04;;;;;;;;;;;;;;;;;;5113650;28;1934;-44
2022/09/26 12:33:50;;;;;;;;;;;;;;;;;;5113595;28;1529;-41
2022/09/26 12:36:46;;;;;;;;;;;;;;;;;;5111118;28;1916;-42
2022/09/26 12:39:13;;;;;;;;;;;;;;;;;;5123272;27;1800;-42
2022/09/26 12:41:47;;;;;;;;;;;;;;;;;;5133509;27;1985;-44
2022/09/26 12:44:27;;;;;;;;;;;;;;;;;;5133641;27;1691;-41
2022/09/26 12:46:57;;;;;;;;;;;;;;;;;;5133626;27;1849;-42
2022/09/26 12:49:37;;;;;;;;;;;;;;;;;;5133716;27;1907;-41
2022/09/26 12:52:19;;;;;;;;;;;;;;;;;;5133890;27;1913;-41
2022/09/26 12:54:58;;;;;;;;;;;;;;;;;;5133494;27;2096;-41
2022/09/26 12:57:28;;;;;;;;;;;;;;;;;;5133495;27;1535;-42
2022/09/26 13:00:20;;;;;;;;;;;;;;;;;;5132201;27;2301;-42
2022/09/26 13:03:08;;;;;;;;;;;;;;;;;;5126211;27;2374;-42
2022/09/26 13:06:01;;;;;;;;;;;;;;;;;;5133630;27;1538;-41
2022/09/26 13:08:57;;;;;;;;;;;;;;;;;;5133291;27;1621;-40
2022/09/26 13:11:30;;;;;;;;;;;;;;;;;;5133700;27;1816;-41
2022/09/26 13:14:13;;;;;;;;;;;;;;;;;;5133194;27;1648;-41
2022/09/26 13:16:47;;;;;;;;;;;;;;;;;;5133163;28;1950;-42
2022/09/26 13:19:22;;;;;;;;;;;;;;;;;;5132131;28;1979;-43
2022/09/26 13:22:01;;;;;;;;;;;;;;;;;;5132909;27;2020;-41
2022/09/26 13:24:33;;;;;;;;;;;;;;;;;;5132999;27;1652;-42
2022/09/26 13:27:09;;;;;;;;;;;;;;;;;;5126451;27;1716;-40
2022/09/26 13:29:37;;;;;;;;;;;;;;;;;;5112557;28;1835;-41
2022/09/26 13:32:14;;;;;;;;;;;;;;;;;;5112621;28;1531;-40
2022/09/26 13:34:49;;;;;;;;;;;;;;;;;;5112540;28;1843;-41
2022/09/26 13:37:27;;;;;;;;;;;;;;;;;;5112529;28;1662;-42
2022/09/26 13:40:03;;;;;;;;;;;;;;;;;;5112727;28;1707;-42
2022/09/26 13:42:50;;;;;;;;;;;;;;;;;;5112461;28;1965;-40
2022/09/26 13:45:24;;;;;;;;;;;;;;;;;;5112549;28;1823;-42
2022/09/26 13:48:04;;;;;;;;;;;;;;;;;;5113759;28;1865;-42
2022/09/26 13:50:37;;;;;;;;;;;;;;;;;;5116790;28;1935;-41
2022/09/26 13:53:12;;;;;;;;;;;;;;;;;;5116659;28;2033;-42
2022/09/26 13:55:42;;;;;;;;;;;;;;;;;;5116467;28;1873;-42
2022/09/26 13:58:32;;;;;;;;;;;;;;;;;;5116249;28;2238;-42
2022/09/26 14:01:19;;;;;;;;;;;;;;;;;;5116189;28;1901;-42
2022/09/26 14:03:46;;;;;;;;;;;;;;;;;;5116326;28;2129;-43
2022/09/26 14:06:18;;;;;;;;;;;;;;;;;;5116135;28;1690;-42
2022/09/26 14:09:26;;;;;;;;;;;;;;;;;;5116154;28;1996;-40
2022/09/26 14:12:14;;;;;;;;;;;;;;;;;;5116525;28;1758;-42
2022/09/26 14:14:49;;;;;;;;;;;;;;;;;;5116063;28;2248;-43
2022/09/26 14:17:35;;;;;;;;;;;;;;;;;;5116184;28;1917;-42
2022/09/26 14:20:04;;;;;;;;;;;;;;;;;;5116123;28;1784;-42
2022/09/26 14:22:33;;;;;;;;;;;;;;;;;;5115975;28;1918;-43
2022/09/26 14:25:01;;;;;;;;;;;;;;;;;;5115560;28;1906;-42
2022/09/26 14:27:39;;;;;;;;;;;;;;;;;;5126752;27;2165;-43
2022/09/26 14:30:07;;;;;;;;;;;;;;;;;;5136474;27;1642;-40
2022/09/26 14:32:36;;;;;;;;;;;;;;;;;;5136426;27;1737;-40
2022/09/26 14:35:17;;;;;;;;;;;;;;;;;;5136524;27;2209;-42
2022/09/26 14:37:48;;;;;;;;;;;;;;;;;;5136336;27;1959;-41
2022/09/26 14:40:36;;;;;;;;;;;;;;;;;;5135857;27;2109;-41
2022/09/26 14:43:12;;;;;;;;;;;;;;;;;;5135110;27;2519;-40
2022/09/26 14:45:40;;;;;;;;;;;;;;;;;;5135855;27;2011;-43
2022/09/26 14:48:10;;;;;;;;;;;;;;;;;;5136074;27;2057;-43
2022/09/26 14:50:43;;;;;;;;;;;;;;;;;;5136009;27;1661;-41
2022/09/26 14:53:19;;;;;;;;;;;;;;;;;;5135756;27;2281;-40
2022/09/26 14:55:56;;;;;;;;;;;;;;;;;;5136055;27;1797;-42
2022/09/26 14:58:36;;;;;;;;;;;;;;;;;;5135561;27;1870;-43
2022/09/26 15:01:05;;;;;;;;;;;;;;;;;;5134331;27;2024;-42
2022/09/26 15:03:35;;;;;;;;;;;;;;;;;;5135795;27;1962;-41
2022/09/26 15:06:04;;;;;;;;;;;;;;;;;;5135918;27;1709;-41
2022/09/26 15:08:35;;;;;;;;;;;;;;;;;;5136033;27;2026;-41
2022/09/26 15:11:05;;;;;;;;;;;;;;;;;;5134466;27;1755;-41
2022/09/26 15:13:42;;;;;;;;;;;;;;;;;;5135509;27;1943;-43
2022/09/26 15:16:33;;;;;;;;;;;;;;;;;;5135634;27;1739;-41
2022/09/26 15:19:10;;;;;;;;;;;;;;;;;;5135703;27;1720;-41
2022/09/26 15:21:40;;;;;;;;;;;;;;;;;;5135417;27;1913;-42
2022/09/26 15:24:26;;;;;;;;;;;;;;;;;;5135672;27;2025;-42
2022/09/26 15:26:57;;;;;;;;;;;;;;;;;;5129407;27;2131;-42
2022/09/26 15:29:25;;;;;;;;;;;;;;;;;;5114982;28;1596;-41
2022/09/26 15:31:54;;;;;;;;;;;;;;;;;;5114860;28;2138;-42
2022/09/26 15:34:29;;;;;;;;;;;;;;;;;;5114683;28;1467;-41
2022/09/26 15:37:00;;;;;;;;;;;;;;;;;;5114760;28;1168;-41
2022/09/26 15:39:30;;;;;;;;;;;;;;;;;;5114429;28;1935;-40
2022/09/26 15:44:47;;;;;;;;;;;;;;;;;;5114510;28;1767;-42
2022/09/26 15:47:32;;;;;;;;;;;;;;;;;;5114497;28;1423;-43
2022/09/26 15:50:14;;;;;;;;;;;;;;;;;;5114646;28;1636;-40
2022/09/26 15:52:47;;;;;;;;;;;;;;;;;;5114143;28;1939;-41
2022/09/26 15:55:17;;;;;;;;;;;;;;;;;;5114397;28;2054;-42
2022/09/26 15:57:46;;;;;;;;;;;;;;;;;;5114073;28;1818;-41
2022/09/26 16:00:14;;;;;;;;;;;;;;;;;;5114115;27;1955;-42
2022/09/26 16:02:41;;;;;;;;;;;;;;;;;;5114129;28;2050;-41
2022/09/26 16:05:10;;;;;;;;;;;;;;;;;;5113684;28;2003;-42
2022/09/26 16:07:40;;;;;;;;;;;;;;;;;;5114247;28;1935;-41
2022/09/26 16:10:21;;;;;;;;;;;;;;;;;;5113811;28;1708;-43
2022/09/26 16:12:48;;;;;;;;;;;;;;;;;;5113490;28;1684;-41
2022/09/26 16:15:17;;;;;;;;;;;;;;;;;;5113313;28;2052;-42
2022/09/26 16:17:52;;;;;;;;;;;;;;;;;;5113885;28;1685;-41
2022/09/26 16:20:19;;;;;;;;;;;;;;;;;;5113472;28;1807;-41
2022/09/26 16:22:50;;;;;;;;;;;;;;;;;;5112220;28;1969;-41
2022/09/26 16:25:17;;;;;;;;;;;;;;;;;;5113784;28;1935;-42
2022/09/26 16:27:46;;;;;;;;;;;;;;;;;;5113531;28;1746;-42
2022/09/26 16:30:24;;;;;;;;;;;;;;;;;;5113668;28;1816;-41
2022/09/26 16:33:14;;;;;;;;;;;;;;;;;;5113469;28;1957;-41
2022/09/26 16:35:45;;;;;;;;;;;;;;;;;;5113576;28;1970;-41
2022/09/26 16:38:26;;;;;;;;;;;;;;;;;;5113456;28;1812;-41
2022/09/26 16:40:57;;;;;;;;;;;;;;;;;;5113174;28;1965;-43
2022/09/26 16:43:30;;;;;;;;;;;;;;;;;;5113559;28;2233;-43
2022/09/26 16:46:12;;;;;;;;;;;;;;;;;;5113317;28;1961;-41
2022/09/26 16:48:41;;;;;;;;;;;;;;;;;;5113303;28;1798;-41
2022/09/26 16:51:16;;;;;;;;;;;;;;;;;;5113342;28;1929;-40
2022/09/26 16:53:44;;;;;;;;;;;;;;;;;;5113051;28;1640;-43
2022/09/26 16:56:14;;;;;;;;;;;;;;;;;;5113082;28;1837;-41
2022/09/26 16:58:44;;;;;;;;;;;;;;;;;;5112838;28;2075;-43
2022/09/26 17:03:58;;;;;;;;;;;;;;;;;;5113179;28;2036;-41
2022/09/26 17:06:26;;;;;;;;;;;;;;;;;;5113052;28;2129;-45
2022/09/26 17:08:55;;;;;;;;;;;;;;;;;;5112966;28;1624;-42
2022/09/26 17:11:22;;;;;;;;;;;;;;;;;;5113048;28;1694;-43
2022/09/26 17:13:52;;;;;;;;;;;;;;;;;;5112331;28;2104;-42
2022/09/26 17:16:20;;;;;;;;;;;;;;;;;;5111630;28;1749;-42
2022/09/26 17:18:48;;;;;;;;;;;;;;;;;;5112033;28;1395;-42
2022/09/26 17:21:17;;;;;;;;;;;;;;;;;;5111375;28;2000;-43
2022/09/26 17:23:44;;;;;;;;;;;;;;;;;;5115579;28;1856;-41
2022/09/26 17:26:22;;;;;;;;;;;;;;;;;;5118222;27;1744;-39
2022/09/26 17:28:52;;;;;;;;;;;;;;;;;;5137499;27;2050;-42
2022/09/26 17:31:22;;;;;;;;;;;;;;;;;;5137698;27;1733;-42
2022/09/26 17:33:52;;;;;;;;;;;;;;;;;;5137509;27;1816;-43
2022/09/26 17:36:24;;;;;;;;;;;;;;;;;;5137636;27;2033;-43
2022/09/26 17:38:54;;;;;;;;;;;;;;;;;;5137103;27;1930;-43
2022/09/26 17:41:21;;;;;;;;;;;;;;;;;;5137356;27;1910;-42
2022/09/26 17:43:57;;;;;;;;;;;;;;;;;;5137250;27;2054;-42
2022/09/26 17:46:24;;;;;;;;;;;;;;;;;;5137516;27;1974;-42
2022/09/26 17:48:54;;;;;;;;;;;;;;;;;;5137248;27;1571;-41
2022/09/26 17:51:22;;;;;;;;;;;;;;;;;;5137065;27;1908;-41
2022/09/26 17:53:51;;;;;;;;;;;;;;;;;;5137402;27;1784;-43
2022/09/26 17:56:19;;;;;;;;;;;;;;;;;;5137209;27;2017;-43
2022/09/26 17:58:47;;;;;;;;;;;;;;;;;;5137061;27;1734;-43
2022/09/26 18:01:21;;;;;;;;;;;;;;;;;;5137192;27;1711;-44
2022/09/26 18:03:50;;;;;;;;;;;;;;;;;;5152640;27;1797;-43
2022/09/26 18:06:20;;;;;;;;;;;;;;;;;;5137156;27;1810;-41
2022/09/26 18:08:48;;;;;;;;;;;;;;;;;;5136728;27;1778;-44
2022/09/26 18:11:16;;;;;;;;;;;;;;;;;;5136889;27;1916;-44
2022/09/26 18:13:51;;;;;;;;;;;;;;;;;;5136798;27;1888;-42